Time;durP1;ratioP1;P1;durP2;ratioP2;P2;SDS_P1;SDS_P2;PMS_P1;PMS_P2;Temp;Humidity;BMP_temperature;BMP_pressure;BME280_temperature;BME280_humidity;BME280_pressure;Samples;Min_cycle;Max_cycle;Signal;HPM_P1;HPM_P2
2023/09/03 18:46:44;;;;;;;;;14.00;13.33;;;;;;;;5102978;27;13411;-71
2023/09/03 18:49:09;;;;;;;;;18.00;17.33;;;;;;;;5105748;28;8968;-69
2023/09/03 18:51:35;;;;;;;;;11.00;10.67;;;;;;;;5107403;28;9447;-71
2023/09/03 18:54:01;;;;;;;;;13.00;10.00;;;;;;;;5105828;28;8824;-69
2023/09/03 18:56:26;;;;;;;;;11.50;11.50;;;;;;;;5107323;28;8792;-70
2023/09/03 18:58:52;;;;;;;;;16.00;16.00;;;;;;;;5107792;28;9540;-71
2023/09/03 19:01:20;;;;;;;;;14.67;12.33;;;;;;;;5108025;28;8872;-70
2023/09/03 19:03:46;;;;;;;;;23.67;22.00;;;;;;;;5121512;27;8924;-73
2023/09/03 19:06:16;;;;;;;;;12.75;12.75;;;;;;;;5128254;27;9068;-72
2023/09/03 19:08:41;;;;;;;;;9.00;9.00;;;;;;;;5127931;27;8819;-74
2023/09/03 19:11:06;;;;;;;;;10.33;10.33;;;;;;;;5128091;27;8793;-75
2023/09/03 19:13:32;;;;;;;;;9.67;9.00;;;;;;;;5128338;27;8789;-75
2023/09/03 19:15:57;;;;;;;;;9.67;9.67;;;;;;;;5128222;27;8785;-75
2023/09/03 19:18:22;;;;;;;;;12.33;12.33;;;;;;;;5118573;27;8782;-73
2023/09/03 19:20:51;;;;;;;;;14.00;14.00;;;;;;;;5115729;27;8796;-74
2023/09/03 19:23:17;;;;;;;;;13.00;12.25;;;;;;;;5113689;27;8796;-75
2023/09/03 19:25:43;;;;;;;;;23.00;19.33;;;;;;;;5118508;27;8965;-73
2023/09/03 19:28:09;;;;;;;;;14.75;14.50;;;;;;;;5127935;27;8877;-74
2023/09/03 19:30:35;;;;;;;;;12.00;11.00;;;;;;;;5127688;27;8900;-70
2023/09/03 19:33:00;;;;;;;;;16.33;14.67;;;;;;;;5127793;27;8908;-73
2023/09/03 19:35:26;;;;;;;;;12.67;12.00;;;;;;;;5128016;27;8801;-73
2023/09/03 19:37:51;;;;;;;;;10.33;10.33;;;;;;;;5127656;27;8819;-75
2023/09/03 19:40:16;;;;;;;;;15.00;14.00;;;;;;;;5119250;27;8914;-72
2023/09/03 19:42:42;;;;;;;;;10.00;10.00;;;;;;;;5115817;27;8838;-74
2023/09/03 19:45:09;;;;;;;;;9.00;9.00;;;;;;;;5115359;28;8828;-73
2023/09/03 19:47:35;;;;;;;;;9.25;9.25;;;;;;;;5114784;27;8846;-74
2023/09/03 19:50:01;;;;;;;;;9.50;8.25;;;;;;;;5116307;27;8810;-74
2023/09/03 19:52:26;;;;;;;;;10.67;10.67;;;;;;;;5117186;27;8913;-71
2023/09/03 19:54:51;;;;;;;;;8.67;8.67;;;;;;;;5111885;27;8809;-71
2023/09/03 19:57:16;;;;;;;;;9.00;9.00;;;;;;;;5107675;28;8789;-69
2023/09/03 19:59:42;;;;;;;;;10.00;10.00;;;;;;;;5103052;28;8808;-71
2023/09/03 20:02:07;;;;;;;;;9.33;9.00;;;;;;;;5107495;28;8797;-70
2023/09/03 20:04:35;;;;;;;;;8.67;7.00;;;;;;;;5109242;28;8835;-71
2023/09/03 20:07:01;;;;;;;;;6.75;6.75;;;;;;;;5101492;28;8816;-71
2023/09/03 20:09:26;;;;;;;;;9.67;9.67;;;;;;;;5103403;28;8802;-72
2023/09/03 20:11:51;;;;;;;;;10.33;8.00;;;;;;;;5101301;28;8788;-70
2023/09/03 20:14:17;;;;;;;;;9.00;7.00;;;;;;;;5100346;28;8809;-72
2023/09/03 20:16:42;;;;;;;;;7.33;7.33;;;;;;;;5103529;28;8890;-72
2023/09/03 20:19:07;;;;;;;;;10.00;9.67;;;;;;;;5101894;28;8812;-72
2023/09/03 20:21:33;;;;;;;;;8.67;7.33;;;;;;;;5103211;28;8894;-72
2023/09/03 20:23:58;;;;;;;;;10.33;9.67;;;;;;;;5100976;28;8816;-73
2023/09/03 20:26:25;;;;;;;;;13.33;10.00;;;;;;;;5103388;28;10667;-71
2023/09/03 20:28:51;;;;;;;;;9.25;9.25;;;;;;;;5095023;28;8812;-73
2023/09/03 20:31:16;;;;;;;;;11.67;9.00;;;;;;;;5092322;28;8836;-72
2023/09/03 20:33:41;;;;;;;;;10.33;9.33;;;;;;;;5092083;28;8827;-72
2023/09/03 20:36:07;;;;;;;;;11.00;11.00;;;;;;;;5092247;28;8820;-72
2023/09/03 20:38:32;;;;;;;;;10.00;10.00;;;;;;;;5090347;28;8824;-71
2023/09/03 20:40:58;;;;;;;;;13.67;9.00;;;;;;;;5092249;28;8885;-72
2023/09/03 20:43:26;;;;;;;;;13.00;10.33;;;;;;;;5091784;28;8804;-71
2023/09/03 20:45:52;;;;;;;;;12.75;12.00;;;;;;;;5091606;28;8901;-72
2023/09/03 20:48:17;;;;;;;;;12.33;11.00;;;;;;;;5085874;28;8969;-72
2023/09/03 20:50:42;;;;;;;;;12.00;9.00;;;;;;;;5079117;28;8830;-73
2023/09/03 20:53:08;;;;;;;;;12.00;10.00;;;;;;;;5091965;28;8776;-72
2023/09/03 20:55:34;;;;;;;;;20.00;18.33;;;;;;;;5091998;28;8820;-72
2023/09/03 20:58:00;;;;;;;;;14.75;14.25;;;;;;;;5092201;28;8784;-73
2023/09/03 21:00:25;;;;;;;;;11.00;9.00;;;;;;;;5092117;28;8812;-72
2023/09/03 21:02:50;;;;;;;;;10.00;10.00;;;;;;;;5090637;28;8811;-72
2023/09/03 21:05:15;;;;;;;;;10.33;10.33;;;;;;;;5092099;28;8880;-71
2023/09/03 21:07:41;;;;;;;;;11.33;10.00;;;;;;;;5089411;28;8784;-71
2023/09/03 21:10:06;;;;;;;;;9.33;9.00;;;;;;;;5090566;28;8818;-71
2023/09/03 21:12:32;;;;;;;;;10.00;10.00;;;;;;;;5091836;28;8804;-71
2023/09/03 21:14:57;;;;;;;;;10.00;9.00;;;;;;;;5091962;28;8813;-68
2023/09/03 21:17:22;;;;;;;;;14.67;14.67;;;;;;;;5091636;28;8788;-70
2023/09/03 21:19:47;;;;;;;;;18.00;16.33;;;;;;;;5091731;28;8772;-69
2023/09/03 21:22:13;;;;;;;;;18.67;17.00;;;;;;;;5091529;28;9533;-68
2023/09/03 21:24:38;;;;;;;;;15.00;12.33;;;;;;;;5089949;28;8815;-68
2023/09/03 21:27:03;;;;;;;;;12.00;12.00;;;;;;;;5091188;28;8871;-69
2023/09/03 21:29:29;;;;;;;;;11.00;11.00;;;;;;;;5091464;28;8785;-68
2023/09/03 21:31:55;;;;;;;;;12.00;12.00;;;;;;;;5091556;28;8822;-68
2023/09/03 21:34:20;;;;;;;;;12.00;12.00;;;;;;;;5091467;28;8776;-69
2023/09/03 21:36:46;;;;;;;;;10.00;9.33;;;;;;;;5091457;28;8868;-68
2023/09/03 21:39:11;;;;;;;;;10.67;10.33;;;;;;;;5091269;28;8807;-69
2023/09/03 21:41:36;;;;;;;;;12.67;11.33;;;;;;;;5091410;28;8788;-69
2023/09/03 21:44:15;;;;;;;;;11.00;11.00;;;;;;;;5091362;28;9646;-69
2023/09/03 21:46:41;;;;;;;;;8.75;8.75;;;;;;;;5091009;28;8854;-69
2023/09/03 21:49:06;;;;;;;;;6.33;6.33;;;;;;;;5089941;28;8811;-69
2023/09/03 21:51:31;;;;;;;;;10.33;8.00;;;;;;;;5091102;28;8892;-69
2023/09/03 21:53:56;;;;;;;;;9.00;9.00;;;;;;;;5091119;28;8882;-69
2023/09/03 21:56:22;;;;;;;;;12.33;12.33;;;;;;;;5090929;28;8882;-69
2023/09/03 21:58:48;;;;;;;;;11.00;10.00;;;;;;;;5090931;28;9513;-69
2023/09/03 22:01:13;;;;;;;;;6.50;6.00;;;;;;;;5089635;28;8792;-69
2023/09/03 22:03:38;;;;;;;;;14.00;14.00;;;;;;;;5091094;28;8784;-68
2023/09/03 22:06:04;;;;;;;;;19.33;15.33;;;;;;;;5089277;28;8824;-72
2023/09/03 22:08:29;;;;;;;;;16.67;15.67;;;;;;;;5089648;28;8820;-73
2023/09/03 22:10:55;;;;;;;;;14.00;13.00;;;;;;;;5090684;28;9779;-73
2023/09/03 22:13:20;;;;;;;;;17.67;15.67;;;;;;;;5090583;28;8788;-73
2023/09/03 22:15:46;;;;;;;;;16.00;16.00;;;;;;;;5090548;28;8796;-73
2023/09/03 22:18:11;;;;;;;;;17.00;16.00;;;;;;;;5090626;28;8840;-73
2023/09/03 22:20:36;;;;;;;;;15.67;15.00;;;;;;;;5090293;28;8772;-73
2023/09/03 22:23:01;;;;;;;;;13.67;13.00;;;;;;;;5090861;28;8796;-73
2023/09/03 22:25:27;;;;;;;;;20.67;17.00;;;;;;;;5090532;28;8848;-73
2023/09/03 22:27:52;;;;;;;;;14.00;14.00;;;;;;;;5090614;28;8787;-73
2023/09/03 22:30:17;;;;;;;;;14.00;14.00;;;;;;;;5089573;28;8926;-73
2023/09/03 22:32:42;;;;;;;;;17.00;15.33;;;;;;;;5090481;28;8773;-73
2023/09/03 22:35:08;;;;;;;;;16.33;15.00;;;;;;;;5090225;28;8912;-72
2023/09/03 22:37:33;;;;;;;;;18.33;15.00;;;;;;;;5090332;28;8808;-73
2023/09/03 22:39:58;;;;;;;;;14.67;14.67;;;;;;;;5090664;28;8787;-73
2023/09/03 22:42:23;;;;;;;;;11.33;11.00;;;;;;;;5090364;28;8807;-73
2023/09/03 22:44:49;;;;;;;;;16.00;15.00;;;;;;;;5090050;28;8874;-74
2023/09/03 22:47:14;;;;;;;;;15.00;14.00;;;;;;;;5090183;28;8796;-74
2023/09/03 22:49:40;;;;;;;;;12.67;12.67;;;;;;;;5089062;28;8895;-74
2023/09/03 22:52:05;;;;;;;;;15.00;14.67;;;;;;;;5090318;28;8804;-74
2023/09/03 22:54:31;;;;;;;;;7.67;6.33;;;;;;;;5090503;28;9667;-74
2023/09/03 22:56:56;;;;;;;;;15.33;14.67;;;;;;;;5090299;28;8764;-73
2023/09/03 22:59:21;;;;;;;;;16.00;15.00;;;;;;;;5090372;28;8822;-74
2023/09/03 23:01:46;;;;;;;;;14.00;12.00;;;;;;;;5090144;28;8776;-74
2023/09/03 23:04:12;;;;;;;;;14.67;13.67;;;;;;;;5090212;28;9512;-74
2023/09/03 23:06:37;;;;;;;;;12.00;11.00;;;;;;;;5088657;28;8843;-74
2023/09/03 23:09:02;;;;;;;;;12.67;10.67;;;;;;;;5090071;28;8904;-73
2023/09/03 23:11:27;;;;;;;;;12.00;12.00;;;;;;;;5090157;28;8898;-73
2023/09/03 23:13:53;;;;;;;;;13.00;11.33;;;;;;;;5088885;28;9796;-73
